Time;durP1;ratioP1;P1;durP2;ratioP2;P2;SDS_P1;SDS_P2;PMS_P1;PMS_P2;Temp;Humidity;BMP_temperature;BMP_pressure;BME280_temperature;BME280_humidity;BME280_pressure;Samples;Min_cycle;Max_cycle;Signal;HPM_P1;HPM_P2
2023/03/19 00:01:05;;;;;;;2.95;0.70;;;;;;;;;;5074380;28;20052;-92
2023/03/19 00:03:32;;;;;;;1.10;1.00;;;;;;;;;;5074120;28;20395;-91
2023/03/19 00:05:59;;;;;;;1.48;1.38;;;;;;;;;;5073143;28;20189;-91
2023/03/19 00:08:25;;;;;;;5.25;1.23;;;;;;;;;;5074259;28;20052;-91
2023/03/19 00:10:52;;;;;;;0.68;0.68;;;;;;;;;;5074102;28;20464;-91
2023/03/19 00:13:18;;;;;;;1.73;1.60;;;;;;;;;;5073982;28;20040;-91
2023/03/19 00:15:45;;;;;;;0.80;0.77;;;;;;;;;;5074316;28;20060;-92
2023/03/19 00:18:13;;;;;;;1.55;1.25;;;;;;;;;;5074349;28;20492;-91
2023/03/19 00:20:40;;;;;;;2.67;2.42;;;;;;;;;;5074105;28;20053;-92
2023/03/19 00:23:06;;;;;;;0.80;0.77;;;;;;;;;;5072051;28;20489;-91
2023/03/19 00:25:33;;;;;;;1.25;1.23;;;;;;;;;;5074220;28;20052;-91
2023/03/19 00:28:00;;;;;;;2.20;2.10;;;;;;;;;;5073876;28;20139;-91
2023/03/19 00:30:26;;;;;;;0.85;0.85;;;;;;;;;;5073686;28;20051;-91
2023/03/19 00:32:53;;;;;;;1.73;1.27;;;;;;;;;;5074234;28;20052;-91
2023/03/19 00:35:21;;;;;;;1.33;1.23;;;;;;;;;;5077739;28;20055;-91
2023/03/19 00:37:48;;;;;;;0.75;0.75;;;;;;;;;;5094457;28;20155;-93
2023/03/19 00:40:14;;;;;;;1.55;1.45;;;;;;;;;;5083625;28;20070;-93
2023/03/19 00:42:43;;;;;;;2.15;2.05;;;;;;;;;;5054003;28;20094;-92
2023/03/19 00:45:10;;;;;;;1.90;1.80;;;;;;;;;;5053944;28;20049;-93
2023/03/19 00:47:37;;;;;;;2.08;1.98;;;;;;;;;;5054035;28;20067;-93
2023/03/19 00:50:04;;;;;;;1.00;0.77;;;;;;;;;;5055096;28;20045;-92
2023/03/19 00:52:32;;;;;;;0.82;0.82;;;;;;;;;;5058171;28;20049;-93
2023/03/19 00:54:59;;;;;;;0.73;0.73;;;;;;;;;;5058421;28;20045;-93
2023/03/19 00:57:25;;;;;;;1.38;1.27;;;;;;;;;;5069831;28;20493;-92
2023/03/19 00:59:52;;;;;;;2.45;2.35;;;;;;;;;;5077782;28;20044;-93
2023/03/19 01:02:18;;;;;;;1.05;1.05;;;;;;;;;;5077788;28;20056;-93
2023/03/19 01:04:47;;;;;;;1.52;1.50;;;;;;;;;;5078015;28;20098;-93
2023/03/19 01:07:14;;;;;;;0.63;0.63;;;;;;;;;;5077475;28;20056;-94
2023/03/19 01:09:42;;;;;;;1.70;1.60;;;;;;;;;;5078047;28;20127;-93
2023/03/19 01:12:09;;;;;;;1.08;0.98;;;;;;;;;;5077307;28;20059;-93
2023/03/19 01:14:35;;;;;;;1.40;1.40;;;;;;;;;;5077602;28;20889;-92
2023/03/19 01:17:02;;;;;;;1.42;1.38;;;;;;;;;;5077742;28;20049;-92
2023/03/19 01:19:29;;;;;;;1.52;1.17;;;;;;;;;;5077515;28;20059;-92
2023/03/19 01:21:56;;;;;;;0.85;0.85;;;;;;;;;;5077650;28;20460;-93
2023/03/19 01:24:22;;;;;;;0.85;0.85;;;;;;;;;;5077626;28;20052;-93
2023/03/19 01:26:50;;;;;;;0.55;0.55;;;;;;;;;;5077504;28;20064;-92
2023/03/19 01:29:17;;;;;;;0.60;0.60;;;;;;;;;;5077204;28;20044;-92
2023/03/19 01:31:43;;;;;;;1.52;1.50;;;;;;;;;;5075423;28;20460;-91
2023/03/19 01:34:10;;;;;;;1.50;1.42;;;;;;;;;;5077607;28;20053;-92
2023/03/19 01:36:37;;;;;;;1.10;1.10;;;;;;;;;;5076875;28;20880;-92
2023/03/19 01:39:03;;;;;;;0.98;0.98;;;;;;;;;;5076796;28;20053;-91
2023/03/19 01:41:30;;;;;;;1.80;1.70;;;;;;;;;;5076818;28;20468;-92
2023/03/19 01:43:58;;;;;;;1.33;1.23;;;;;;;;;;5076959;28;20044;-93
2023/03/19 01:46:27;;;;;;;0.60;0.60;;;;;;;;;;5075974;28;20040;-93
2023/03/19 01:48:54;;;;;;;1.00;1.00;;;;;;;;;;5077214;28;20551;-94
2023/03/19 01:51:23;;;;;;;2.67;1.58;;;;;;;;;;5077286;28;20455;-93
2023/03/19 01:53:51;;;;;;;1.75;1.15;;;;;;;;;;5077063;28;20075;-92
2023/03/19 01:56:19;;;;;;;1.45;1.35;;;;;;;;;;5076798;28;20083;-92
2023/03/19 01:58:48;;;;;;;0.73;0.73;;;;;;;;;;5076684;28;20044;-93
2023/03/19 02:01:16;;;;;;;0.65;0.65;;;;;;;;;;5076914;28;20049;-94
2023/03/19 02:03:43;;;;;;;0.68;0.68;;;;;;;;;;5070838;28;20045;-92
2023/03/19 02:06:11;;;;;;;2.15;1.33;;;;;;;;;;5076760;28;20497;-92
2023/03/19 02:08:38;;;;;;;2.47;2.38;;;;;;;;;;5076196;28;20040;-92
2023/03/19 02:11:05;;;;;;;0.80;0.80;;;;;;;;;;5076126;28;20060;-92
2023/03/19 02:13:31;;;;;;;3.72;2.40;;;;;;;;;;5076006;28;20045;-92
2023/03/19 02:15:58;;;;;;;0.63;0.63;;;;;;;;;;5076549;28;20110;-93
2023/03/19 02:18:26;;;;;;;1.20;1.17;;;;;;;;;;5075407;28;20452;-92
2023/03/19 02:20:56;;;;;;;0.52;0.52;;;;;;;;;;5076502;28;20057;-93
2023/03/19 02:23:27;;;;;;;1.00;0.98;;;;;;;;;;5076249;28;20052;-92
2023/03/19 02:26:06;;;;;;;1.10;1.10;;;;;;;;;;5076139;28;20048;-92
2023/03/19 02:28:33;;;;;;;1.33;1.30;;;;;;;;;;5076413;28;20052;-92
2023/03/19 02:31:00;;;;;;;0.95;0.95;;;;;;;;;;5076238;28;20044;-92
2023/03/19 02:33:26;;;;;;;0.93;0.93;;;;;;;;;;5076161;28;20052;-92
2023/03/19 02:35:53;;;;;;;1.02;1.00;;;;;;;;;;5074629;28;20060;-92
2023/03/19 02:38:21;;;;;;;1.52;1.42;;;;;;;;;;5076351;28;20106;-92
2023/03/19 02:40:51;;;;;;;0.82;0.82;;;;;;;;;;5075950;28;20484;-92
2023/03/19 02:43:20;;;;;;;1.80;1.45;;;;;;;;;;5075771;28;20048;-93
2023/03/19 02:45:47;;;;;;;1.30;1.25;;;;;;;;;;5075622;28;20052;-92
2023/03/19 02:48:13;;;;;;;0.47;0.47;;;;;;;;;;5075899;28;20044;-92
2023/03/19 02:50:40;;;;;;;2.85;2.75;;;;;;;;;;5069368;28;20063;-92
2023/03/19 02:53:07;;;;;;;1.80;1.70;;;;;;;;;;5075150;28;20056;-92
2023/03/19 02:55:33;;;;;;;1.23;1.13;;;;;;;;;;5075546;28;20075;-92
2023/03/19 02:58:00;;;;;;;0.88;0.88;;;;;;;;;;5074281;28;20052;-91
2023/03/19 03:00:27;;;;;;;1.25;1.25;;;;;;;;;;5074816;28;20475;-91
2023/03/19 03:02:55;;;;;;;0.52;0.52;;;;;;;;;;5075394;28;20048;-90
2023/03/19 03:05:21;;;;;;;0.65;0.65;;;;;;;;;;5075002;28;20048;-91
2023/03/19 03:07:48;;;;;;;1.65;1.55;;;;;;;;;;5074861;28;20045;-91
2023/03/19 03:10:15;;;;;;;0.82;0.82;;;;;;;;;;5075078;28;20045;-91
2023/03/19 03:12:41;;;;;;;0.88;0.85;;;;;;;;;;5075442;28;20044;-91
2023/03/19 03:15:08;;;;;;;1.65;1.55;;;;;;;;;;5075021;28;20048;-91
2023/03/19 03:17:38;;;;;;;0.32;0.32;;;;;;;;;;5075156;28;20471;-91
2023/03/19 03:20:05;;;;;;;1.55;1.45;;;;;;;;;;5075227;28;20445;-91
2023/03/19 03:22:32;;;;;;;0.60;0.60;;;;;;;;;;5074988;28;20049;-91
2023/03/19 03:24:59;;;;;;;0.82;0.82;;;;;;;;;;5074921;28;20044;-91
2023/03/19 03:27:25;;;;;;;1.23;1.23;;;;;;;;;;5073407;28;20048;-91
2023/03/19 03:29:52;;;;;;;0.85;0.85;;;;;;;;;;5074559;28;20055;-91
2023/03/19 03:32:18;;;;;;;1.55;1.45;;;;;;;;;;5074794;28;20102;-92
2023/03/19 03:34:46;;;;;;;2.38;2.28;;;;;;;;;;5074190;28;20045;-90
2023/03/19 03:37:13;;;;;;;0.90;0.90;;;;;;;;;;5074472;28;20459;-91
2023/03/19 03:39:39;;;;;;;1.17;1.17;;;;;;;;;;5074936;28;20049;-91
2023/03/19 03:42:06;;;;;;;1.65;1.55;;;;;;;;;;5074257;28;20044;-90
2023/03/19 03:44:33;;;;;;;1.13;1.10;;;;;;;;;;5073877;28;20052;-91
2023/03/19 03:47:00;;;;;;;0.80;0.70;;;;;;;;;;5074529;28;20071;-91
2023/03/19 03:49:27;;;;;;;1.15;1.13;;;;;;;;;;5074356;28;20052;-91
2023/03/19 03:51:55;;;;;;;1.55;1.48;;;;;;;;;;5074213;28;20493;-92
2023/03/19 03:54:21;;;;;;;1.17;0.98;;;;;;;;;;5074184;28;20102;-92
2023/03/19 03:56:49;;;;;;;1.40;1.35;;;;;;;;;;5074124;28;20493;-92
2023/03/19 03:59:15;;;;;;;1.42;1.33;;;;;;;;;;5074572;28;20098;-92
2023/03/19 04:01:42;;;;;;;0.65;0.65;;;;;;;;;;5072965;28;20036;-92
2023/03/19 04:04:08;;;;;;;7.57;1.33;;;;;;;;;;5074292;28;20097;-92
2023/03/19 04:06:35;;;;;;;1.20;1.17;;;;;;;;;;5074210;28;20044;-92
2023/03/19 04:09:04;;;;;;;0.95;0.95;;;;;;;;;;5074283;28;20110;-91
2023/03/19 04:11:30;;;;;;;1.48;1.40;;;;;;;;;;5073796;28;20049;-91
2023/03/19 04:13:57;;;;;;;1.52;1.50;;;;;;;;;;5073806;28;20509;-91
2023/03/19 04:16:24;;;;;;;1.15;1.15;;;;;;;;;;5074449;28;20045;-91
2023/03/19 04:18:50;;;;;;;0.95;0.95;;;;;;;;;;5073113;28;20052;-91
2023/03/19 04:21:17;;;;;;;1.67;1.58;;;;;;;;;;5077934;28;20090;-90
2023/03/19 04:23:43;;;;;;;0.63;0.60;;;;;;;;;;5110972;28;20066;-91
2023/03/19 04:26:11;;;;;;;0.45;0.45;;;;;;;;;;5104497;28;20439;-92
2023/03/19 04:28:38;;;;;;;0.52;0.52;;;;;;;;;;5093840;28;20101;-92
2023/03/19 04:31:06;;;;;;;1.55;1.45;;;;;;;;;;5093973;28;20055;-92
2023/03/19 04:33:33;;;;;;;1.00;1.00;;;;;;;;;;5102589;28;20128;-90
2023/03/19 04:36:00;;;;;;;1.58;1.48;;;;;;;;;;5092167;28;20446;-90
2023/03/19 04:38:26;;;;;;;5.68;1.67;;;;;;;;;;5072943;28;20501;-90
2023/03/19 04:40:53;;;;;;;0.63;0.63;;;;;;;;;;5073815;28;20048;-91
2023/03/19 04:43:21;;;;;;;0.90;0.90;;;;;;;;;;5073313;28;20182;-91
2023/03/19 04:45:47;;;;;;;1.88;1.55;;;;;;;;;;5074188;28;20061;-92
2023/03/19 04:48:14;;;;;;;1.30;1.27;;;;;;;;;;5073642;28;20049;-92
2023/03/19 04:50:41;;;;;;;0.80;0.80;;;;;;;;;;5073431;28;20048;-91
2023/03/19 04:53:08;;;;;;;0.95;0.95;;;;;;;;;;5073219;28;20466;-91
2023/03/19 04:55:34;;;;;;;1.73;1.63;;;;;;;;;;5067488;28;20041;-91
2023/03/19 04:58:01;;;;;;;4.47;2.17;;;;;;;;;;5073094;28;20472;-89
2023/03/19 05:00:29;;;;;;;1.90;1.80;;;;;;;;;;5073204;28;20135;-91
2023/03/19 05:02:56;;;;;;;0.65;0.65;;;;;;;;;;5073195;28;20386;-90
2023/03/19 05:05:22;;;;;;;1.35;1.27;;;;;;;;;;5073371;28;20089;-90
2023/03/19 05:07:49;;;;;;;1.20;1.17;;;;;;;;;;5072990;28;20463;-92
2023/03/19 05:10:15;;;;;;;2.03;1.92;;;;;;;;;;5069024;28;20041;-91
2023/03/19 05:12:42;;;;;;;1.58;1.55;;;;;;;;;;5072603;28;20395;-91
2023/03/19 05:15:09;;;;;;;0.93;0.93;;;;;;;;;;5073842;28;20056;-92
2023/03/19 05:17:37;;;;;;;0.75;0.75;;;;;;;;;;5074093;28;20052;-91
2023/03/19 05:20:04;;;;;;;0.65;0.65;;;;;;;;;;5073535;28;20394;-91
2023/03/19 05:22:31;;;;;;;2.25;2.15;;;;;;;;;;5073142;28;20577;-91
2023/03/19 05:24:58;;;;;;;1.10;1.10;;;;;;;;;;5073589;28;20049;-91
2023/03/19 05:27:24;;;;;;;2.13;2.03;;;;;;;;;;5072847;28;20554;-92
2023/03/19 05:29:51;;;;;;;1.60;1.55;;;;;;;;;;5073403;28;20048;-90
2023/03/19 05:32:18;;;;;;;1.95;1.85;;;;;;;;;;5073239;28;20048;-91
2023/03/19 05:34:46;;;;;;;3.80;3.60;;;;;;;;;;5070608;28;20443;-91
2023/03/19 05:37:13;;;;;;;1.85;1.75;;;;;;;;;;5074695;28;20117;-92
2023/03/19 05:39:39;;;;;;;1.73;1.63;;;;;;;;;;5076741;28;20105;-92
2023/03/19 05:42:06;;;;;;;0.75;0.75;;;;;;;;;;5077106;28;20059;-92
2023/03/19 05:44:32;;;;;;;3.42;1.75;;;;;;;;;;5070612;28;20045;-92
2023/03/19 05:46:59;;;;;;;1.88;1.77;;;;;;;;;;5077081;28;20052;-92
2023/03/19 05:49:26;;;;;;;1.70;1.67;;;;;;;;;;5076600;28;20045;-92
2023/03/19 05:51:54;;;;;;;1.77;1.67;;;;;;;;;;5076863;28;20501;-92
2023/03/19 05:54:20;;;;;;;2.90;1.42;;;;;;;;;;5077219;28;20056;-92
2023/03/19 05:56:47;;;;;;;1.52;1.42;;;;;;;;;;5076359;28;20531;-92
2023/03/19 05:59:13;;;;;;;4.38;2.53;;;;;;;;;;5076923;28;20094;-92
2023/03/19 06:01:40;;;;;;;1.95;1.85;;;;;;;;;;5076230;28;20044;-92
2023/03/19 06:04:07;;;;;;;1.45;1.40;;;;;;;;;;5075617;28;20105;-91
2023/03/19 06:06:33;;;;;;;1.40;1.38;;;;;;;;;;5076547;28;20076;-91
2023/03/19 06:09:01;;;;;;;3.25;3.03;;;;;;;;;;5076246;28;20048;-90
2023/03/19 06:11:28;;;;;;;1.50;1.38;;;;;;;;;;5076322;28;20044;-91
2023/03/19 06:13:54;;;;;;;0.73;0.73;;;;;;;;;;5076526;28;20106;-90
2023/03/19 06:16:21;;;;;;;4.43;2.65;;;;;;;;;;5076109;28;20098;-90
2023/03/19 06:18:47;;;;;;;1.15;1.08;;;;;;;;;;5076034;28;20098;-91
2023/03/19 06:21:14;;;;;;;3.58;3.10;;;;;;;;;;5075415;28;20053;-91
2023/03/19 06:23:41;;;;;;;1.98;1.75;;;;;;;;;;5075535;28;20055;-91
2023/03/19 06:26:09;;;;;;;3.88;3.67;;;;;;;;;;5075996;28;20383;-91
2023/03/19 06:28:35;;;;;;;1.40;1.30;;;;;;;;;;5076457;28;20048;-91
2023/03/19 06:31:02;;;;;;;1.00;1.00;;;;;;;;;;5075754;28;20044;-91
2023/03/19 06:33:31;;;;;;;1.65;1.55;;;;;;;;;;5076395;28;20086;-91
2023/03/19 06:35:57;;;;;;;2.42;2.30;;;;;;;;;;5073176;28;20060;-91
2023/03/19 06:38:24;;;;;;;4.40;3.83;;;;;;;;;;5088232;28;20052;-94
2023/03/19 06:40:50;;;;;;;2.22;2.13;;;;;;;;;;5098203;28;20044;-92
2023/03/19 06:43:18;;;;;;;3.22;2.13;;;;;;;;;;5098156;28;20051;-91
2023/03/19 06:45:45;;;;;;;1.63;1.40;;;;;;;;;;5109206;28;20048;-91
2023/03/19 06:48:12;;;;;;;2.22;2.13;;;;;;;;;;5108937;28;20044;-90
2023/03/19 06:50:38;;;;;;;2.05;1.95;;;;;;;;;;5107416;28;20044;-90
2023/03/19 06:53:05;;;;;;;6.00;2.88;;;;;;;;;;5098322;28;20045;-91
2023/03/19 06:55:31;;;;;;;1.90;1.73;;;;;;;;;;5085582;28;20049;-91
2023/03/19 06:57:58;;;;;;;4.38;2.63;;;;;;;;;;5079625;28;20105;-91
2023/03/19 07:00:26;;;;;;;2.28;2.15;;;;;;;;;;5075471;28;20048;-91
2023/03/19 07:02:53;;;;;;;3.30;2.92;;;;;;;;;;5055322;28;20059;-91
2023/03/19 07:05:20;;;;;;;1.80;1.70;;;;;;;;;;5055819;28;20140;-91
2023/03/19 07:07:46;;;;;;;2.22;2.13;;;;;;;;;;5055279;28;20048;-91
2023/03/19 07:10:13;;;;;;;1.63;1.52;;;;;;;;;;5062735;28;20082;-91
2023/03/19 07:12:39;;;;;;;6.63;3.28;;;;;;;;;;5074882;28;20052;-91
2023/03/19 07:15:07;;;;;;;2.92;2.83;;;;;;;;;;5075170;28;20106;-91
2023/03/19 07:17:34;;;;;;;2.83;2.67;;;;;;;;;;5074787;28;20052;-91
2023/03/19 07:20:01;;;;;;;3.22;3.08;;;;;;;;;;5075322;28;20052;-93
2023/03/19 07:22:28;;;;;;;3.25;3.13;;;;;;;;;;5075003;28;20060;-93
2023/03/19 07:24:54;;;;;;;2.35;2.15;;;;;;;;;;5075586;28;20110;-91
2023/03/19 07:27:21;;;;;;;5.28;2.90;;;;;;;;;;5073230;28;20076;-92
2023/03/19 07:29:47;;;;;;;1.70;1.60;;;;;;;;;;5094013;28;20047;-92
2023/03/19 07:32:14;;;;;;;2.70;2.53;;;;;;;;;;5095144;28;20043;-91
2023/03/19 07:34:42;;;;;;;2.80;2.70;;;;;;;;;;5077269;28;20052;-91
2023/03/19 07:37:09;;;;;;;4.05;3.78;;;;;;;;;;5074300;28;20044;-92
2023/03/19 07:39:36;;;;;;;4.13;3.80;;;;;;;;;;5074575;28;20500;-92
2023/03/19 07:42:03;;;;;;;2.80;2.67;;;;;;;;;;5074750;28;20053;-94
2023/03/19 07:44:30;;;;;;;7.60;7.30;;;;;;;;;;5076862;28;20056;-91
2023/03/19 07:46:56;;;;;;;2.17;2.08;;;;;;;;;;5078133;28;20102;-92
2023/03/19 07:49:23;;;;;;;4.25;3.08;;;;;;;;;;5090907;28;20082;-93
2023/03/19 07:51:51;;;;;;;2.40;2.30;;;;;;;;;;5094369;28;20055;-93
2023/03/19 07:54:18;;;;;;;2.95;2.83;;;;;;;;;;5094616;28;20459;-92
2023/03/19 07:56:44;;;;;;;4.45;4.15;;;;;;;;;;5094654;28;20055;-93
2023/03/19 07:59:11;;;;;;;3.88;3.55;;;;;;;;;;5093063;28;20044;-92
2023/03/19 08:01:37;;;;;;;3.55;3.25;;;;;;;;;;5072645;28;20059;-93
2023/03/19 08:04:04;;;;;;;2.88;2.78;;;;;;;;;;5071584;28;20554;-92
2023/03/19 08:06:31;;;;;;;3.60;3.42;;;;;;;;;;5073983;28;20052;-94
2023/03/19 08:08:59;;;;;;;5.15;4.75;;;;;;;;;;5074055;28;20056;-92
2023/03/19 08:11:28;;;;;;;4.75;4.45;;;;;;;;;;5074170;28;20406;-92
2023/03/19 08:13:55;;;;;;;5.15;4.85;;;;;;;;;;5074167;28;20147;-92
2023/03/19 08:16:21;;;;;;;4.55;4.32;;;;;;;;;;5074101;28;20045;-93
2023/03/19 08:18:48;;;;;;;5.45;5.13;;;;;;;;;;5072703;28;20040;-92
2023/03/19 08:21:15;;;;;;;7.15;6.82;;;;;;;;;;5073779;28;20114;-90
2023/03/19 08:23:41;;;;;;;5.82;5.45;;;;;;;;;;5074216;28;20131;-92
2023/03/19 08:26:09;;;;;;;4.20;4.00;;;;;;;;;;5072879;28;20059;-92
2023/03/19 08:28:36;;;;;;;5.00;4.78;;;;;;;;;;5073471;28;20055;-91
2023/03/19 08:31:08;;;;;;;4.82;4.55;;;;;;;;;;5074038;28;20059;-91
2023/03/19 08:33:34;;;;;;;5.05;4.00;;;;;;;;;;5074159;28;20044;-92
2023/03/19 08:36:06;;;;;;;9.57;8.93;;;;;;;;;;5073933;28;20052;-92
2023/03/19 08:38:32;;;;;;;6.53;6.22;;;;;;;;;;5074047;28;20070;-92
2023/03/19 08:41:01;;;;;;;3.95;3.75;;;;;;;;;;5074057;28;20061;-91
2023/03/19 08:43:29;;;;;;;7.03;6.50;;;;;;;;;;5071688;28;20041;-91
2023/03/19 08:45:55;;;;;;;5.45;5.15;;;;;;;;;;5074243;28;20056;-92
2023/03/19 08:48:22;;;;;;;4.50;3.65;;;;;;;;;;5073890;28;20044;-91
2023/03/19 08:50:52;;;;;;;6.10;5.80;;;;;;;;;;5073960;28;20497;-91
2023/03/19 08:53:18;;;;;;;3.58;3.38;;;;;;;;;;5075217;28;20049;-92
2023/03/19 08:55:45;;;;;;;6.47;6.18;;;;;;;;;;5093666;28;20109;-90
2023/03/19 08:58:11;;;;;;;8.73;8.27;;;;;;;;;;5091167;28;20048;-91
2023/03/19 09:00:39;;;;;;;4.20;4.00;;;;;;;;;;5075933;28;20053;-91
2023/03/19 09:03:06;;;;;;;8.57;6.90;;;;;;;;;;5074412;28;20055;-91
2023/03/19 09:05:32;;;;;;;6.30;6.00;;;;;;;;;;5073956;28;20053;-92
2023/03/19 09:07:59;;;;;;;3.95;3.75;;;;;;;;;;5074226;28;20048;-90
2023/03/19 09:10:38;;;;;;;3.88;3.67;;;;;;;;;;5073894;28;20479;-91
2023/03/19 09:13:04;;;;;;;3.63;3.42;;;;;;;;;;5078310;28;20052;-91
2023/03/19 09:15:31;;;;;;;6.50;6.03;;;;;;;;;;5077691;28;20054;-92
2023/03/19 09:17:59;;;;;;;6.18;5.72;;;;;;;;;;5080304;28;20082;-92
2023/03/19 09:20:26;;;;;;;5.28;5.05;;;;;;;;;;5078659;28;20757;-91
2023/03/19 09:22:52;;;;;;;8.50;7.80;;;;;;;;;;5079095;28;20044;-90
2023/03/19 09:25:19;;;;;;;6.88;6.57;;;;;;;;;;5077059;28;20055;-90
2023/03/19 09:27:46;;;;;;;7.28;6.97;;;;;;;;;;5077474;28;20072;-91
2023/03/19 09:30:13;;;;;;;5.22;4.93;;;;;;;;;;5077574;28;20094;-91
2023/03/19 09:32:39;;;;;;;5.78;5.47;;;;;;;;;;5075989;28;20060;-91
2023/03/19 09:35:08;;;;;;;10.50;9.82;;;;;;;;;;5077684;28;20070;-91
2023/03/19 09:37:34;;;;;;;8.15;7.57;;;;;;;;;;5077110;28;20052;-91
2023/03/19 09:40:03;;;;;;;4.07;3.88;;;;;;;;;;5077168;28;20521;-92
2023/03/19 09:42:36;;;;;;;8.50;8.00;;;;;;;;;;5077220;28;20049;-91
2023/03/19 09:45:03;;;;;;;6.85;6.35;;;;;;;;;;5076527;28;20452;-91
2023/03/19 09:47:30;;;;;;;7.63;7.22;;;;;;;;;;5076881;28;20416;-90
2023/03/19 09:49:58;;;;;;;5.93;5.63;;;;;;;;;;5076744;28;20049;-90
2023/03/19 09:52:35;;;;;;;6.45;6.05;;;;;;;;;;5077128;28;20047;-90
2023/03/19 09:55:06;;;;;;;7.50;7.18;;;;;;;;;;5088984;28;20083;-91
2023/03/19 09:57:39;;;;;;;9.65;9.20;;;;;;;;;;5082756;28;20053;-90
2023/03/19 10:00:15;;;;;;;6.88;6.30;;;;;;;;;;5076501;28;20048;-92
2023/03/19 10:02:42;;;;;;;8.82;8.25;;;;;;;;;;5077290;28;20053;-91
2023/03/19 10:05:13;;;;;;;9.70;9.15;;;;;;;;;;5076871;28;20071;-91
2023/03/19 10:07:39;;;;;;;;;;;;;;;;;;5075958;28;20566;-92
2023/03/19 10:10:27;;;;;;;6.43;6.10;;;;;;;;;;5076454;28;19974;-92
2023/03/19 10:12:56;;;;;;;5.68;5.25;;;;;;;;;;5076459;28;20041;-90
2023/03/19 10:15:26;;;;;;;4.55;4.35;;;;;;;;;;5076101;28;20045;-91
2023/03/19 10:17:56;;;;;;;5.20;4.90;;;;;;;;;;5075938;28;20051;-91
2023/03/19 10:20:29;;;;;;;7.95;7.55;;;;;;;;;;5076299;28;20072;-91
2023/03/19 10:22:59;;;;;;;7.53;6.90;;;;;;;;;;5075783;28;20056;-90
2023/03/19 10:25:30;;;;;;;6.78;6.47;;;;;;;;;;5075067;28;20051;-93
2023/03/19 10:27:59;;;;;;;6.25;5.93;;;;;;;;;;5076233;28;20114;-91
2023/03/19 10:30:26;;;;;;;6.78;6.45;;;;;;;;;;5075333;28;20068;-92
2023/03/19 10:32:54;;;;;;;6.75;6.45;;;;;;;;;;5076375;28;20048;-92
2023/03/19 10:35:23;;;;;;;8.43;8.10;;;;;;;;;;5076417;28;20285;-92
2023/03/19 10:37:50;;;;;;;7.82;7.43;;;;;;;;;;5076362;28;20044;-92
2023/03/19 10:40:20;;;;;;;6.57;6.28;;;;;;;;;;5076407;28;20080;-92
2023/03/19 10:42:53;;;;;;;5.63;5.32;;;;;;;;;;5075593;28;20132;-91
2023/03/19 10:45:24;;;;;;;5.53;5.30;;;;;;;;;;5075969;28;20044;-91
2023/03/19 10:47:51;;;;;;;5.88;5.57;;;;;;;;;;5074684;28;20044;-93
2023/03/19 10:50:19;;;;;;;6.97;6.57;;;;;;;;;;5075945;28;20048;-92
2023/03/19 10:52:50;;;;;;;4.38;4.15;;;;;;;;;;5075434;28;20440;-92
2023/03/19 10:55:17;;;;;;;4.35;4.15;;;;;;;;;;5087111;28;20852;-92
2023/03/19 10:57:44;;;;;;;7.68;7.28;;;;;;;;;;5095687;28;20131;-92
2023/03/19 11:00:17;;;;;;;6.20;5.90;;;;;;;;;;5095553;28;20063;-92
2023/03/19 11:02:48;;;;;;;5.85;5.55;;;;;;;;;;5095345;28;20062;-93
2023/03/19 11:05:25;;;;;;;5.53;5.22;;;;;;;;;;5083251;28;20110;-92
2023/03/19 11:07:54;;;;;;;6.03;5.72;;;;;;;;;;5075227;28;20063;-92
2023/03/19 11:10:22;;;;;;;8.00;7.60;;;;;;;;;;5085884;28;20109;-92
2023/03/19 11:12:52;;;;;;;8.02;7.63;;;;;;;;;;5095736;28;20055;-90
2023/03/19 11:15:22;;;;;;;8.23;7.82;;;;;;;;;;5095226;28;20048;-90
2023/03/19 11:17:50;;;;;;;7.13;6.72;;;;;;;;;;5094945;28;20055;-91
2023/03/19 11:20:22;;;;;;;7.97;7.68;;;;;;;;;;5093952;28;20052;-86
2023/03/19 11:22:49;;;;;;;8.18;7.78;;;;;;;;;;5079387;28;20041;-89
2023/03/19 11:25:18;;;;;;;11.55;10.95;;;;;;;;;;5082537;28;20438;-89
2023/03/19 11:27:57;;;;;;;9.48;8.93;;;;;;;;;;5093913;28;20055;-89
2023/03/19 11:30:26;;;;;;;7.28;6.97;;;;;;;;;;5083544;28;20421;-89
2023/03/19 11:33:07;;;;;;;14.07;13.40;;;;;;;;;;5073088;28;20049;-89
2023/03/19 11:35:36;;;;;;;6.85;6.50;;;;;;;;;;5070534;28;20052;-89
2023/03/19 11:38:03;;;;;;;8.80;8.35;;;;;;;;;;5072417;28;20055;-90
2023/03/19 11:40:41;;;;;;;7.32;6.93;;;;;;;;;;5071854;28;20102;-87
2023/03/19 11:43:25;;;;;;;5.90;5.55;;;;;;;;;;5072975;28;20044;-88
2023/03/19 11:46:00;;;;;;;6.45;6.15;;;;;;;;;;5073723;28;20056;-90
2023/03/19 11:48:34;;;;;;;8.23;7.72;;;;;;;;;;5074406;28;20052;-90
2023/03/19 11:51:04;;;;;;;9.15;8.57;;;;;;;;;;5074193;28;20078;-90
2023/03/19 11:53:31;;;;;;;11.52;11.05;;;;;;;;;;5073277;28;20145;-89
2023/03/19 11:56:05;;;;;;;12.18;11.15;;;;;;;;;;5087081;28;20052;-89
2023/03/19 11:58:43;;;;;;;7.35;6.93;;;;;;;;;;5073576;28;20080;-88
2023/03/19 12:01:16;;;;;;;7.85;7.40;;;;;;;;;;5087557;28;20055;-89
2023/03/19 12:03:57;;;;;;;7.25;6.85;;;;;;;;;;5093375;28;20135;-88
2023/03/19 12:06:28;;;;;;;9.52;8.75;;;;;;;;;;5059540;28;20064;-88
2023/03/19 12:11:44;;;;;;;8.32;7.93;;;;;;;;;;5073420;28;20129;-88
2023/03/19 12:14:16;;;;;;;5.72;5.38;;;;;;;;;;5071859;28;20052;-90
2023/03/19 12:17:03;;;;;;;6.88;6.45;;;;;;;;;;5070902;28;20075;-90
2023/03/19 12:19:39;;;;;;;6.32;6.03;;;;;;;;;;5071896;28;20067;-90
2023/03/19 12:22:11;;;;;;;8.88;8.55;;;;;;;;;;5074856;28;20048;-90
2023/03/19 12:24:45;;;;;;;6.10;5.70;;;;;;;;;;5073931;28;20098;-91
2023/03/19 12:27:19;;;;;;;6.10;5.70;;;;;;;;;;5074254;28;20139;-91
2023/03/19 12:29:49;;;;;;;7.97;7.57;;;;;;;;;;5073340;28;20482;-90
2023/03/19 12:32:27;;;;;;;6.93;6.53;;;;;;;;;;5076311;28;20051;-91
2023/03/19 12:34:55;;;;;;;13.30;12.25;;;;;;;;;;5073061;28;20052;-91
2023/03/19 12:37:26;;;;;;;8.85;8.45;;;;;;;;;;5073904;28;20053;-93
2023/03/19 12:40:05;;;;;;;10.45;9.85;;;;;;;;;;5075329;28;20054;-90
2023/03/19 12:42:35;;;;;;;7.07;6.78;;;;;;;;;;5093978;28;20499;-90
2023/03/19 12:45:03;;;;;;;;;;;;;;;;;;5093115;28;20083;-91
2023/03/19 12:47:32;;;;;;;8.80;8.40;;;;;;;;;;5088434;28;20502;-89
2023/03/19 12:50:01;;;;;;;9.35;8.95;;;;;;;;;;5079797;28;20138;-89
2023/03/19 12:52:31;;;;;;;10.88;10.38;;;;;;;;;;5088460;28;20063;-89
2023/03/19 12:55:00;;;;;;;9.63;9.23;;;;;;;;;;5077294;28;20424;-88
2023/03/19 12:57:31;;;;;;;8.05;7.63;;;;;;;;;;5076797;28;20570;-90
2023/03/19 13:00:01;;;;;;;9.45;9.05;;;;;;;;;;5077060;28;20463;-91
2023/03/19 13:02:30;;;;;;;7.47;7.07;;;;;;;;;;5076804;28;20053;-89
2023/03/19 13:05:02;;;;;;;8.45;8.00;;;;;;;;;;5075548;28;20052;-90
2023/03/19 13:07:33;;;;;;;6.97;6.63;;;;;;;;;;5077345;28;20044;-90
2023/03/19 13:10:03;;;;;;;12.38;11.88;;;;;;;;;;5077167;28;20486;-90
2023/03/19 13:12:32;;;;;;;7.95;7.55;;;;;;;;;;5077044;28;20053;-90
2023/03/19 13:15:00;;;;;;;7.90;7.50;;;;;;;;;;5076430;28;20117;-89
2023/03/19 13:17:29;;;;;;;8.40;8.00;;;;;;;;;;5076219;28;20528;-91
2023/03/19 13:19:56;;;;;;;7.85;7.45;;;;;;;;;;5076719;28;20045;-89
2023/03/19 13:22:26;;;;;;;6.15;5.85;;;;;;;;;;5075584;28;20071;-89
2023/03/19 13:24:52;;;;;;;6.80;6.40;;;;;;;;;;5076564;28;20094;-90
2023/03/19 13:27:20;;;;;;;8.43;8.02;;;;;;;;;;5076692;28;20452;-91
2023/03/19 13:29:55;;;;;;;7.13;6.72;;;;;;;;;;5077160;28;20098;-91
2023/03/19 13:32:23;;;;;;;8.68;8.27;;;;;;;;;;5076993;28;20048;-90
2023/03/19 13:34:50;;;;;;;7.72;7.43;;;;;;;;;;5076505;28;20118;-91
2023/03/19 13:37:18;;;;;;;6.15;5.85;;;;;;;;;;5077042;28;20097;-91
2023/03/19 13:39:47;;;;;;;5.95;5.63;;;;;;;;;;5073585;28;20438;-91
2023/03/19 13:42:35;;;;;;;9.25;8.85;;;;;;;;;;5077442;28;20063;-91
2023/03/19 13:45:03;;;;;;;8.05;7.65;;;;;;;;;;5060255;28;20466;-91
2023/03/19 13:47:39;;;;;;;9.05;8.27;;;;;;;;;;5075342;28;20049;-92
2023/03/19 13:50:26;;;;;;;7.75;7.43;;;;;;;;;;5077193;28;20506;-92
2023/03/19 13:52:55;;;;;;;5.53;5.22;;;;;;;;;;5068174;28;20048;-92
2023/03/19 13:55:45;;;;;;;10.20;9.80;;;;;;;;;;5077960;28;20055;-91
2023/03/19 13:58:48;;;;;;;7.30;6.90;;;;;;;;;;5095634;28;20573;-91
2023/03/19 14:01:04;;;;;;;6.90;6.47;;;;;;;;;;5093638;28;20082;-90
2023/03/19 14:03:32;;;;;;;7.18;6.88;;;;;;;;;;5092693;28;20093;-90
2023/03/19 14:05:59;;;;;;;9.20;8.80;;;;;;;;;;5061821;28;20545;-90
2023/03/19 14:08:27;;;;;;;6.82;6.45;;;;;;;;;;5075227;28;20132;-90
2023/03/19 14:10:55;;;;;;;6.35;6.05;;;;;;;;;;5075858;28;20052;-90
2023/03/19 14:13:26;;;;;;;6.15;5.85;;;;;;;;;;5073694;28;20051;-90
2023/03/19 14:15:53;;;;;;;7.88;6.88;;;;;;;;;;5076140;28;20506;-90
2023/03/19 14:18:22;;;;;;;5.35;5.07;;;;;;;;;;5078020;28;20082;-90
2023/03/19 14:20:56;;;;;;;7.55;7.15;;;;;;;;;;5077048;28;20049;-90
2023/03/19 14:23:24;;;;;;;5.80;5.50;;;;;;;;;;5068849;28;20182;-90
2023/03/19 14:25:58;;;;;;;6.90;6.50;;;;;;;;;;5085477;28;20059;-91
2023/03/19 14:28:30;;;;;;;10.95;10.45;;;;;;;;;;5075221;28;20047;-90
2023/03/19 14:30:57;;;;;;;6.32;5.93;;;;;;;;;;5084267;28;20083;-91
2023/03/19 14:33:26;;;;;;;6.75;6.45;;;;;;;;;;5080325;28;20040;-91
2023/03/19 14:35:52;;;;;;;7.15;6.85;;;;;;;;;;5079644;28;20044;-90
2023/03/19 14:38:24;;;;;;;6.07;5.78;;;;;;;;;;5096030;28;20496;-90
2023/03/19 14:40:52;;;;;;;8.18;7.68;;;;;;;;;;5092797;28;20044;-93
2023/03/19 14:43:27;;;;;;;7.47;7.18;;;;;;;;;;5076151;28;20048;-91
2023/03/19 14:45:57;;;;;;;9.02;8.63;;;;;;;;;;5075001;28;20052;-91
2023/03/19 14:48:34;;;;;;;7.70;7.30;;;;;;;;;;5055224;28;20076;-90
2023/03/19 14:51:19;;;;;;;7.82;7.53;;;;;;;;;;5055118;28;20057;-90
2023/03/19 14:53:48;;;;;;;7.57;7.25;;;;;;;;;;5060628;28;20122;-89